Time;durP1;ratioP1;P1;durP2;ratioP2;P2;SDS_P1;SDS_P2;PMS_P1;PMS_P2;Temp;Humidity;BMP_temperature;BMP_pressure;BME280_temperature;BME280_humidity;BME280_pressure;Samples;Min_cycle;Max_cycle;Signal;HPM_P1;HPM_P2
2023/09/25 00:02:59;;;;;;;45.48;23.02;;;;;;;13.80;61.50;101531.59;1774035;80;21865;-59
2023/09/25 00:06:06;;;;;;;26.02;14.20;;;;;;;13.77;61.55;101531.05;1774169;80;21340;-59
2023/09/25 00:09:12;;;;;;;26.33;14.20;;;;;;;13.73;61.60;101535.19;1772922;80;21328;-59
2023/09/25 00:12:18;;;;;;;25.80;11.88;;;;;;;13.70;61.67;101535.53;1772913;80;21336;-60
2023/09/25 00:15:25;;;;;;;21.77;12.15;;;;;;;13.66;61.75;101536.38;1772857;81;21419;-61
2023/09/25 00:18:30;;;;;;;23.20;11.05;;;;;;;13.62;61.81;101536.34;1773526;80;21194;-61
2023/09/25 00:21:38;;;;;;;20.75;12.05;;;;;;;13.61;61.89;101542.02;1772878;80;21387;-60
2023/09/25 00:24:45;;;;;;;21.12;12.07;;;;;;;13.57;61.96;101540.64;1772850;79;21341;-59
2023/09/25 00:27:53;;;;;;;20.88;12.37;;;;;;;13.53;62.01;101534.60;1774065;80;21392;-59
2023/09/25 00:31:00;;;;;;;15.68;11.28;;;;;;;13.50;62.04;101538.56;1773467;80;21841;-59
2023/09/25 00:34:06;;;;;;;22.17;11.75;;;;;;;13.47;62.08;101546.28;1774956;80;21845;-58
2023/09/25 00:37:12;;;;;;;19.98;12.10;;;;;;;13.42;62.15;101544.03;1774464;79;21356;-59
2023/09/25 00:40:21;;;;;;;18.20;11.33;;;;;;;13.42;62.19;101540.41;1773541;79;21337;-60
2023/09/25 00:43:27;;;;;;;19.37;11.35;;;;;;;13.36;62.21;101547.45;1774203;80;21190;-61
2023/09/25 00:46:34;;;;;;;27.67;10.98;;;;;;;13.32;62.30;101537.80;1753725;81;21245;-62
2023/09/25 00:49:41;;;;;;;22.25;13.03;;;;;;;13.31;62.45;101537.45;1785620;79;21328;-62
2023/09/25 00:52:53;;;;;;;18.35;12.05;;;;;;;13.28;62.48;101537.79;1779908;80;21187;-62
2023/09/25 00:55:58;;;;;;;18.80;12.07;;;;;;;13.21;62.53;101540.84;1793170;80;21336;-62
2023/09/25 00:59:06;;;;;;;22.00;12.47;;;;;;;13.21;62.75;101542.21;1788232;79;21399;-62
2023/09/25 01:02:13;;;;;;;19.65;11.88;;;;;;;13.21;62.82;101544.96;1793424;79;21423;-61
2023/09/25 01:05:22;;;;;;;21.17;11.88;;;;;;;13.22;62.95;101548.05;1793232;80;21318;-61
2023/09/25 01:08:28;;;;;;;19.82;11.97;;;;;;;13.21;62.90;101555.96;1793160;80;21376;-61
2023/09/25 01:11:34;;;;;;;24.00;11.83;;;;;;;13.16;62.86;101551.46;1793246;79;21412;-60
2023/09/25 01:14:40;;;;;;;23.52;11.53;;;;;;;13.11;62.85;101555.74;1793145;80;21392;-61
2023/09/25 01:17:47;;;;;;;18.80;11.28;;;;;;;13.07;62.87;101559.83;1793089;80;21226;-61
2023/09/25 01:20:55;;;;;;;17.12;11.25;;;;;;;13.04;62.92;101569.78;1793166;80;21332;-61
2023/09/25 01:24:02;;;;;;;22.70;12.35;;;;;;;13.02;62.98;101567.20;1793185;80;21356;-61
2023/09/25 01:27:08;;;;;;;22.35;12.40;;;;;;;13.00;63.04;101570.61;1793163;79;21946;-59
2023/09/25 01:30:16;;;;;;;22.85;12.40;;;;;;;12.99;63.11;101563.37;1793269;80;21324;-60
2023/09/25 01:33:22;;;;;;;20.72;12.60;;;;;;;12.97;63.09;101572.81;1772022;80;21334;-59
2023/09/25 01:36:28;;;;;;;19.12;11.90;;;;;;;12.94;63.11;101569.86;1793276;80;21403;-59
2023/09/25 01:39:35;;;;;;;20.35;11.93;;;;;;;12.91;63.10;101569.31;1793080;79;21353;-60
2023/09/25 01:42:41;;;;;;;19.60;11.38;;;;;;;12.86;63.09;101568.43;1793130;80;21400;-59
2023/09/25 01:45:47;;;;;;;21.73;11.38;;;;;;;12.82;63.12;101575.29;1793180;80;21380;-60
2023/09/25 01:48:54;;;;;;;20.05;11.35;;;;;;;12.78;63.20;101573.87;1793156;80;21179;-60
2023/09/25 01:52:07;;;;;;;22.30;11.63;;;;;;;12.75;63.29;101575.56;1793279;79;21329;-60
2023/09/25 01:55:09;;;;;;;21.40;11.60;;;;;;;12.75;63.40;101579.69;1791780;77;21885;-61
2023/09/25 01:58:09;;;;;;;18.82;11.65;;;;;;;12.75;63.56;101575.56;1793018;80;21345;-61
2023/09/25 02:01:15;;;;;;;19.60;11.55;;;;;;;12.77;63.73;101574.91;1793272;80;21459;-60
2023/09/25 02:04:23;;;;;;;20.77;12.13;;;;;;;12.81;63.87;101574.92;1777687;79;21344;-60
2023/09/25 02:07:29;;;;;;;17.67;12.15;;;;;;;12.82;63.90;101569.80;1781543;80;21384;-61
2023/09/25 02:10:36;;;;;;;16.77;11.45;;;;;;;12.80;63.79;101583.33;1792205;80;21337;-60
2023/09/25 02:13:42;;;;;;;16.52;11.22;;;;;;;12.75;63.79;101585.19;1792841;80;21333;-61
2023/09/25 02:16:49;;;;;;;17.15;11.53;;;;;;;12.72;63.79;101591.51;1793218;80;21191;-63
2023/09/25 02:20:02;;;;;;;16.12;11.68;;;;;;;12.69;63.80;101591.83;1792968;80;21360;-63
2023/09/25 02:23:03;;;;;;;18.65;11.63;;;;;;;12.67;63.82;101596.64;1793154;79;21908;-59
2023/09/25 02:26:10;;;;;;;19.77;11.65;;;;;;;12.63;63.87;101602.97;1792875;79;21178;-62
2023/09/25 02:29:20;;;;;;;19.75;11.93;;;;;;;12.64;64.00;101594.19;1793021;80;21341;-61
2023/09/25 02:32:27;;;;;;;18.32;12.60;;;;;;;12.67;64.13;101606.27;1793106;80;21344;-62
2023/09/25 02:35:32;;;;;;;17.23;12.88;;;;;;;12.71;64.25;101606.28;1790405;80;21838;-61
2023/09/25 02:38:38;;;;;;;18.52;12.95;;;;;;;12.74;64.31;101610.08;1793125;80;21365;-61
2023/09/25 02:41:45;;;;;;;18.52;13.03;;;;;;;12.76;64.36;101614.41;1790852;80;21411;-61
2023/09/25 02:44:51;;;;;;;21.93;14.20;;;;;;;12.77;64.34;101609.25;1793536;79;21328;-61
2023/09/25 02:47:58;;;;;;;25.23;14.63;;;;;;;12.74;64.19;101608.20;1778358;80;21344;-65
2023/09/25 02:51:05;;;;;;;29.23;16.85;;;;;;;12.68;64.14;101611.59;1774962;79;21441;-66
2023/09/25 02:54:58;;;;;;;29.10;18.00;;;;;;;12.71;64.20;101605.78;1858318;76;28006;-66
2023/09/25 03:01:58;;;;;;;34.03;19.05;;;;;;;12.64;64.15;101614.80;1853788;76;28096;-69
2023/09/25 03:05:04;;;;;;;32.25;18.40;;;;;;;12.65;64.19;101624.28;1872070;76;28473;-67
2023/09/25 03:13:31;;;;;;;25.30;15.00;;;;;;;12.53;64.16;101614.55;1885605;76;27953;-66
2023/09/25 03:16:39;;;;;;;26.45;14.50;;;;;;;12.44;64.16;101618.25;1828161;78;21401;-65
2023/09/25 03:19:44;;;;;;;23.47;14.05;;;;;;;12.40;64.18;101627.80;1813111;79;21302;-65
2023/09/25 03:22:54;;;;;;;22.98;13.80;;;;;;;12.37;64.32;101621.26;1812598;79;21420;-64
2023/09/25 03:26:01;;;;;;;19.57;13.18;;;;;;;12.34;64.30;101622.95;1812390;78;21167;-65
2023/09/25 03:29:08;;;;;;;25.10;12.90;;;;;;;12.32;64.31;101618.11;1812309;79;21761;-68
2023/09/25 03:32:14;;;;;;;20.60;11.83;;;;;;;12.32;64.42;101619.48;1812178;78;21865;-64
2023/09/25 03:35:21;;;;;;;21.60;12.18;;;;;;;12.34;64.46;101622.95;1812249;79;21326;-65
2023/09/25 03:38:26;;;;;;;20.68;12.63;;;;;;;12.34;64.49;101622.95;1812269;79;21337;-67
2023/09/25 03:41:33;;;;;;;21.20;12.75;;;;;;;12.37;64.52;101634.14;1812262;78;21329;-67
2023/09/25 03:44:39;;;;;;;19.07;11.73;;;;;;;12.37;64.53;101643.23;1812257;79;21890;-65
2023/09/25 03:47:48;;;;;;;19.90;11.97;;;;;;;12.39;64.64;101637.08;1812163;78;21329;-66
2023/09/25 03:50:54;;;;;;;20.15;11.80;;;;;;;12.42;64.75;101640.88;1812263;78;21317;-62
2023/09/25 03:54:00;;;;;;;22.02;13.05;;;;;;;12.47;64.80;101643.15;1812229;79;21310;-68
2023/09/25 03:57:06;;;;;;;20.55;12.73;;;;;;;12.47;64.68;101638.53;1812242;78;21330;-65
2023/09/25 04:00:14;;;;;;;23.47;12.73;;;;;;;12.46;64.58;101640.06;1812297;79;21317;-67
2023/09/25 04:03:22;;;;;;;23.98;13.08;;;;;;;12.44;64.52;101646.21;1812281;79;21313;-65
2023/09/25 04:06:30;;;;;;;22.22;12.70;;;;;;;12.42;64.56;101649.12;1812237;78;21337;-64
2023/09/25 04:09:35;;;;;;;26.35;13.08;;;;;;;12.46;64.70;101654.67;1812256;79;21306;-64
2023/09/25 04:12:44;;;;;;;20.82;13.68;;;;;;;12.49;64.68;101653.48;1810422;78;21361;-67
2023/09/25 04:15:51;;;;;;;26.60;11.25;;;;;;;12.50;64.67;101650.57;1808833;78;21359;-67
2023/09/25 04:18:58;;;;;;;21.95;13.58;;;;;;;12.53;64.66;101650.75;1802054;79;21330;-68
2023/09/25 04:22:06;;;;;;;26.87;12.82;;;;;;;12.55;64.68;101655.09;1801564;78;21361;-65
2023/09/25 04:25:18;;;;;;;17.85;11.12;;;;;;;12.57;64.69;101658.55;1801504;79;21159;-65
2023/09/25 04:28:21;;;;;;;21.55;12.07;;;;;;;12.58;64.63;101660.27;1800816;79;22351;-65
2023/09/25 04:31:28;;;;;;;20.08;12.35;;;;;;;12.59;64.63;101663.35;1800486;78;21204;-65
2023/09/25 04:34:35;;;;;;;17.73;11.70;;;;;;;12.61;64.70;101666.81;1799928;79;21246;-65
2023/09/25 04:37:43;;;;;;;20.75;11.97;;;;;;;12.67;64.77;101664.80;1798890;79;21194;-66
2023/09/25 04:40:49;;;;;;;17.17;11.33;;;;;;;12.72;64.78;101661.57;1798393;79;21339;-65
2023/09/25 04:43:56;;;;;;;24.65;12.30;;;;;;;12.78;64.83;101658.22;1799225;79;21373;-66
2023/09/25 04:47:01;;;;;;;19.52;11.97;;;;;;;12.84;64.89;101661.20;1798403;78;21337;-61
2023/09/25 04:50:06;;;;;;;16.37;10.80;;;;;;;12.91;64.98;101666.39;1795221;78;21318;-61
2023/09/25 04:53:11;;;;;;;21.00;12.47;;;;;;;13.02;65.02;101668.04;1796021;79;21200;-56
2023/09/25 04:56:16;;;;;;;21.10;11.35;;;;;;;13.12;65.05;101671.56;1798766;78;21744;-57
2023/09/25 04:59:24;;;;;;;20.85;11.25;;;;;;;13.20;65.05;101673.87;1795636;79;21172;-56
2023/09/25 05:02:32;;;;;;;17.55;11.35;;;;;;;13.29;65.06;101677.02;1792294;79;21191;-59
2023/09/25 05:05:38;;;;;;;23.57;12.68;;;;;;;13.37;65.05;101674.82;1792039;79;21462;-59
2023/09/25 05:08:46;;;;;;;19.50;10.90;;;;;;;13.45;65.07;101677.13;1784269;79;21584;-60
2023/09/25 05:11:51;;;;;;;21.17;12.78;;;;;;;13.53;65.07;101674.42;1796930;79;21172;-61
2023/09/25 05:14:56;;;;;;;18.32;11.33;;;;;;;13.63;65.12;101676.17;1755873;79;21184;-62
2023/09/25 05:18:02;;;;;;;20.90;11.45;;;;;;;13.75;65.15;101687.27;1791362;79;21692;-61
2023/09/25 05:21:08;;;;;;;23.10;11.60;;;;;;;13.84;65.17;101685.77;1777979;79;21689;-60
2023/09/25 05:24:13;;;;;;;17.20;11.83;;;;;;;13.95;65.14;101684.09;1777564;80;21695;-62
2023/09/25 05:27:14;;;;;;;23.42;11.55;;;;;;;14.06;65.14;101687.05;1777224;79;21187;-58
2023/09/25 05:30:20;;;;;;;17.77;10.88;;;;;;;14.14;65.15;101685.70;1793887;77;21337;-59
2023/09/25 05:33:27;;;;;;;18.70;11.90;;;;;;;14.24;65.11;101687.81;1808553;78;21287;-60
2023/09/25 05:36:34;;;;;;;20.35;11.28;;;;;;;14.34;65.13;101683.03;1809247;77;21882;-59
2023/09/25 05:39:42;;;;;;;16.27;11.05;;;;;;;14.43;65.10;101677.91;1804265;77;21293;-60
2023/09/25 05:42:50;;;;;;;20.32;11.83;;;;;;;14.53;65.08;101686.86;1794314;79;21367;-60
2023/09/25 05:45:57;;;;;;;21.70;12.23;;;;;;;14.63;65.07;101682.93;1807367;79;21354;-61
2023/09/25 05:49:07;;;;;;;18.77;11.28;;;;;;;14.72;65.03;101687.41;1810241;78;21390;-63
2023/09/25 05:52:26;;;;;;;19.90;11.05;;;;;;;14.81;65.01;101691.89;1805686;79;21329;-61
2023/09/25 05:55:32;;;;;;;17.12;10.48;;;;;;;14.89;65.00;101693.78;1808931;78;21396;-62
2023/09/25 05:58:39;;;;;;;20.02;11.60;;;;;;;15.00;64.96;101690.67;1808354;79;21298;-61
2023/09/25 06:01:46;;;;;;;21.02;12.50;;;;;;;15.10;64.95;101698.27;1795340;78;21760;-60
2023/09/25 06:04:52;;;;;;;19.02;11.53;;;;;;;15.19;64.95;101701.36;1806027;79;21377;-60
2023/09/25 06:07:59;;;;;;;17.07;10.78;;;;;;;15.30;64.90;101701.55;1806416;77;21265;-59
2023/09/25 06:11:08;;;;;;;22.30;12.93;;;;;;;15.39;64.91;101704.15;1808532;78;21353;-60
2023/09/25 06:14:15;;;;;;;27.13;18.37;;;;;;;15.48;64.88;101707.73;1793465;79;21169;-60
2023/09/25 06:17:26;;;;;;;27.37;19.02;;;;;;;15.58;64.83;101709.29;1802409;78;21164;-60
2023/09/25 06:20:31;;;;;;;17.40;11.48;;;;;;;15.67;64.85;101705.46;1806411;78;21411;-60
2023/09/25 06:23:36;;;;;;;17.37;9.48;;;;;;;15.79;64.79;101713.70;1793038;79;21338;-62
2023/09/25 06:26:46;;;;;;;20.68;10.55;;;;;;;15.90;64.75;101706.95;1809728;78;21341;-61
2023/09/25 06:29:54;;;;;;;16.05;10.45;;;;;;;16.02;64.70;101710.52;1808361;77;21293;-62
2023/09/25 06:32:59;;;;;;;18.25;9.88;;;;;;;16.13;64.60;101708.75;1807188;77;21345;-62
2023/09/25 06:36:05;;;;;;;21.37;10.15;;;;;;;16.28;64.58;101713.84;1806967;78;21207;-61
2023/09/25 06:39:11;;;;;;;20.32;9.95;;;;;;;16.41;64.52;101711.91;1786960;77;22137;-60
2023/09/25 06:42:16;;;;;;;17.35;9.98;;;;;;;16.52;64.46;101711.52;1791868;77;21186;-60
2023/09/25 06:45:24;;;;;;;18.10;10.35;;;;;;;16.63;64.40;101713.88;1799723;79;21514;-62
2023/09/25 06:48:35;;;;;;;15.90;9.83;;;;;;;16.74;64.32;101718.11;1790268;78;21785;-65
2023/09/25 06:51:31;;;;;;;16.52;10.03;;;;;;;16.87;64.27;101714.22;1803736;78;21871;-66
2023/09/25 06:54:37;;;;;;;24.23;11.88;;;;;;;16.98;64.26;101706.33;1807308;77;21369;-61
2023/09/25 06:57:45;;;;;;;20.40;12.58;;;;;;;17.12;64.23;101711.59;1789394;79;21870;-62
2023/09/25 07:00:57;;;;;;;17.15;10.43;;;;;;;17.26;64.18;101723.23;1803015;77;21376;-60
2023/09/25 07:04:06;;;;;;;16.50;10.55;;;;;;;17.40;64.18;101712.71;1789869;79;21347;-59
2023/09/25 07:07:12;;;;;;;17.50;10.70;;;;;;;17.56;64.11;101723.66;1806639;77;21560;-60
2023/09/25 07:10:19;;;;;;;20.35;11.12;;;;;;;17.67;63.99;101722.69;1784806;78;21161;-62
2023/09/25 07:13:42;;;;;;;42.40;18.90;;;;;;;17.78;63.89;101718.58;1796154;78;21315;-62
2023/09/25 07:16:48;;;;;;;27.85;15.13;;;;;;;17.95;63.82;101728.97;1802707;78;21789;-60
2023/09/25 07:19:59;;;;;;;20.75;10.53;;;;;;;18.07;63.72;101724.14;1798368;78;22219;-62
2023/09/25 07:23:05;;;;;;;21.65;9.90;;;;;;;18.28;63.75;101728.37;1813593;78;21188;-62
2023/09/25 07:26:15;;;;;;;15.63;10.10;;;;;;;18.48;63.74;101726.74;1821306;78;21914;-61
2023/09/25 07:29:21;;;;;;;15.00;8.88;;;;;;;18.63;63.56;101730.33;1813996;78;21306;-59
2023/09/25 07:32:28;;;;;;;15.53;9.48;;;;;;;18.75;63.34;101730.16;1817029;78;21668;-60
2023/09/25 07:35:36;;;;;;;19.55;9.90;;;;;;;18.92;63.28;101728.85;1806182;78;21945;-61
2023/09/25 07:38:45;;;;;;;15.48;9.25;;;;;;;19.02;63.02;101730.78;1800734;77;21919;-61
2023/09/25 07:41:52;;;;;;;19.02;11.03;;;;;;;19.09;62.77;101730.85;1799790;78;21730;-57
2023/09/25 07:44:59;;;;;;;21.75;16.62;;;;;;;19.15;62.59;101732.27;1808003;78;21904;-58
2023/09/25 07:48:05;;;;;;;18.35;13.38;;;;;;;19.22;62.39;101727.66;1806261;79;21215;-60
2023/09/25 07:51:14;;;;;;;18.42;9.05;;;;;;;19.31;62.24;101732.59;1797491;79;21390;-59
2023/09/25 07:54:20;;;;;;;15.58;9.88;;;;;;;19.42;62.08;101725.63;1809041;77;21326;-58
2023/09/25 07:57:28;;;;;;;19.10;9.68;;;;;;;19.50;61.89;101726.34;1801349;79;21171;-59
2023/09/25 08:00:39;;;;;;;19.95;9.20;;;;;;;19.59;61.69;101721.48;1806431;78;21339;-58
2023/09/25 08:03:46;;;;;;;21.07;9.70;;;;;;;19.69;61.54;101724.78;1804824;77;21263;-60
2023/09/25 08:06:53;;;;;;;17.55;8.73;;;;;;;19.80;61.33;101722.83;1802471;77;21377;-62
2023/09/25 08:10:00;;;;;;;15.88;8.65;;;;;;;19.90;61.14;101723.33;1802720;79;21734;-59
2023/09/25 08:13:23;;;;;;;14.80;8.88;;;;;;;20.14;60.94;101721.45;1841582;76;28020;-59
2023/09/25 08:16:29;;;;;;;13.68;8.55;;;;;;;20.16;60.72;101722.11;1785471;79;21344;-61
2023/09/25 08:22:48;;;;;;;20.27;7.83;;;;;;;20.38;60.32;101712.07;1706539;82;21247;-59
2023/09/25 08:25:56;;;;;;;17.85;8.60;;;;;;;20.54;60.11;101713.62;1717851;82;21312;-60
2023/09/25 08:29:05;;;;;;;14.87;7.22;;;;;;;20.67;59.86;101709.50;1718779;82;21263;-61
2023/09/25 08:32:11;;;;;;;13.05;7.53;;;;;;;20.81;59.60;101709.86;1670476;85;21273;-59
2023/09/25 08:35:16;;;;;;;13.62;6.78;;;;;;;20.94;59.36;101699.28;1691948;83;21378;-59
2023/09/25 08:38:22;;;;;;;12.05;6.80;;;;;;;21.09;59.10;101702.22;1706148;83;21243;-60
2023/09/25 08:41:29;;;;;;;12.03;7.12;;;;;;;21.22;58.77;101705.03;1707145;82;21235;-60
2023/09/25 08:44:36;;;;;;;16.15;6.75;;;;;;;21.38;58.53;101711.58;1724818;82;21220;-60
2023/09/25 08:47:46;;;;;;;9.53;6.53;;;;;;;21.53;58.26;101698.27;1727350;82;21974;-61
2023/09/25 08:50:51;;;;;;;17.40;7.37;;;;;;;21.74;58.09;101702.22;1718372;82;21196;-58
2023/09/25 08:53:57;;;;;;;13.53;6.50;;;;;;;21.91;57.72;101704.91;1709870;82;21547;-61
2023/09/25 08:57:03;;;;;;;15.65;6.83;;;;;;;22.08;57.45;101697.80;1709827;82;21375;-59
2023/09/25 09:00:14;;;;;;;17.75;9.70;;;;;;;22.26;57.06;101699.89;1709139;82;21340;-53
2023/09/25 09:03:19;;;;;;;12.88;7.85;;;;;;;22.38;56.63;101698.64;1704480;82;21781;-55
2023/09/25 09:06:26;;;;;;;13.28;7.95;;;;;;;22.52;56.28;101706.78;1717806;81;21235;-52
2023/09/25 09:09:32;;;;;;;12.73;7.28;;;;;;;22.61;55.80;101697.06;1734124;82;21283;-53
2023/09/25 09:12:38;;;;;;;11.30;6.72;;;;;;;22.75;55.46;101697.86;1723949;81;21232;-53
2023/09/25 09:15:48;;;;;;;15.03;6.40;;;;;;;22.88;55.06;101710.36;1653242;85;21248;-54
2023/09/25 09:18:54;;;;;;;10.80;5.60;;;;;;;23.02;54.68;101703.08;1712376;83;21441;-53
2023/09/25 09:22:17;;;;;;;11.97;6.47;;;;;;;23.16;54.35;101702.42;1645383;84;21833;-53
2023/09/25 09:25:27;;;;;;;10.98;5.80;;;;;;;23.26;53.92;101697.23;1643053;85;21217;-53
2023/09/25 09:28:34;;;;;;;8.75;5.72;;;;;;;23.44;53.56;101695.88;1663657;86;21212;-53
2023/09/25 09:31:40;;;;;;;7.85;5.20;;;;;;;23.53;53.08;101686.15;1645724;86;21308;-53
2023/09/25 09:34:46;;;;;;;11.95;5.30;;;;;;;23.61;52.61;101683.89;1700364;84;21248;-54
2023/09/25 09:37:53;;;;;;;7.87;4.83;;;;;;;23.69;52.18;101688.33;1700998;84;21876;-55
2023/09/25 09:41:01;;;;;;;11.05;5.05;;;;;;;23.78;51.80;101681.37;1701277;84;21403;-54
2023/09/25 09:44:08;;;;;;;10.48;5.85;;;;;;;23.83;51.37;101682.94;1700971;84;21418;-51
2023/09/25 09:47:15;;;;;;;10.40;5.80;;;;;;;23.90;51.03;101686.51;1700812;84;21711;-53
2023/09/25 09:50:32;;;;;;;11.38;4.87;;;;;;;23.96;50.59;101684.17;1686919;82;21220;-55
2023/09/25 09:53:43;;;;;;;9.15;5.25;;;;;;;24.01;50.25;101687.17;1677179;84;21241;-53
2023/09/25 09:56:50;;;;;;;6.33;4.60;;;;;;;24.07;49.96;101692.40;1681882;83;21291;-54
2023/09/25 09:59:58;;;;;;;11.20;4.78;;;;;;;24.14;49.65;101691.23;1700255;84;21426;-54
2023/09/25 10:03:04;;;;;;;8.98;4.45;;;;;;;24.21;49.35;101682.76;1672291;83;21770;-56
2023/09/25 10:06:11;;;;;;;10.82;4.92;;;;;;;24.31;49.06;101689.50;1682002;84;21752;-58
2023/09/25 10:09:21;;;;;;;11.83;4.55;;;;;;;24.40;48.78;101687.26;1680630;83;21714;-61
2023/09/25 10:12:54;;;;;;;9.98;4.33;;;;;;;24.50;48.57;101682.80;1681031;83;21655;-60
2023/09/25 10:16:07;;;;;;;13.05;4.20;;;;;;;24.59;48.31;101681.37;1689085;84;21303;-59
2023/09/25 10:19:28;;;;;;;11.97;4.08;;;;;;;24.67;47.93;101676.88;1672485;85;21224;-61
2023/09/25 10:22:37;;;;;;;8.08;3.80;;;;;;;24.74;47.58;101679.59;1692250;82;21205;-58
2023/09/25 10:25:55;;;;;;;6.28;3.70;;;;;;;24.80;47.26;101676.70;1682206;83;21288;-60
2023/09/25 10:29:22;;;;;;;11.90;4.72;;;;;;;24.88;47.02;101673.56;1698066;82;21246;-61
2023/09/25 10:32:46;;;;;;;10.08;4.17;;;;;;;24.94;46.76;101664.77;1685822;82;21226;-60
2023/09/25 10:35:53;;;;;;;9.43;4.30;;;;;;;25.03;46.50;101671.73;1686434;82;21416;-59
2023/09/25 10:39:01;;;;;;;6.85;3.95;;;;;;;25.11;46.27;101668.58;1683443;84;21335;-60
2023/09/25 10:42:16;;;;;;;10.20;3.60;;;;;;;25.22;46.07;101662.69;1689444;84;21257;-59
2023/09/25 10:45:26;;;;;;;11.28;4.00;;;;;;;25.32;45.83;101661.55;1686895;82;21364;-59
2023/09/25 10:48:32;;;;;;;12.60;3.90;;;;;;;25.41;45.63;101662.39;1684225;83;21293;-63
2023/09/25 10:51:38;;;;;;;7.35;4.33;;;;;;;25.52;45.47;101655.08;1688080;82;21814;-61
2023/09/25 10:57:49;;;;;;;9.35;4.10;;;;;;;25.74;45.12;101656.17;1687897;82;21397;-63
2023/09/25 11:00:57;;;;;;;11.65;4.10;;;;;;;25.85;44.97;101649.70;1697253;82;21223;-61
2023/09/25 11:04:08;;;;;;;11.95;4.80;;;;;;;25.92;44.72;101647.09;1684311;82;21226;-58
2023/09/25 11:07:15;;;;;;;9.10;4.12;;;;;;;26.00;44.52;101650.96;1683239;84;21281;-61
2023/09/25 11:10:21;;;;;;;10.20;4.53;;;;;;;26.10;44.35;101650.33;1692738;84;21214;-62
2023/09/25 11:13:31;;;;;;;9.75;4.42;;;;;;;26.20;44.18;101647.19;1685370;84;21572;-58
2023/09/25 11:16:39;;;;;;;10.00;4.25;;;;;;;26.31;44.00;101642.63;1675739;84;21355;-58
2023/09/25 11:19:48;;;;;;;10.25;4.62;;;;;;;26.40;43.80;101641.98;1691752;82;21237;-61
2023/09/25 11:22:55;;;;;;;10.43;4.58;;;;;;;26.51;43.60;101643.07;1691394;82;21203;-61
2023/09/25 11:26:02;;;;;;;10.98;4.62;;;;;;;26.62;43.45;101640.77;1682624;83;21266;-56
2023/09/25 11:29:07;;;;;;;10.30;4.55;;;;;;;26.74;43.28;101642.99;1670969;86;21281;-64
2023/09/25 11:32:13;;;;;;;10.35;4.83;;;;;;;26.83;43.07;101635.84;1656000;85;22249;-59
2023/09/25 11:35:22;;;;;;;5.97;4.28;;;;;;;26.91;42.85;101634.03;1645270;86;21934;-60
2023/09/25 11:38:31;;;;;;;12.10;4.65;;;;;;;27.00;42.66;101635.34;1672560;84;21193;-59
2023/09/25 11:41:36;;;;;;;9.50;4.47;;;;;;;27.07;42.42;101639.38;1687170;83;21859;-60
2023/09/25 11:44:43;;;;;;;6.40;4.47;;;;;;;27.12;42.13;101644.55;1699201;84;21244;-62
2023/09/25 11:47:50;;;;;;;8.50;4.28;;;;;;;27.18;41.96;101641.30;1700027;84;21702;-64
2023/09/25 11:50:57;;;;;;;9.03;4.53;;;;;;;27.24;41.77;101634.06;1698891;83;21248;-65
2023/09/25 11:54:04;;;;;;;8.48;4.40;;;;;;;27.33;41.60;101636.81;1698467;83;21220;-61
2023/09/25 11:57:10;;;;;;;6.78;4.15;;;;;;;27.43;41.42;101630.50;1623634;87;21249;-59
2023/09/25 12:00:19;;;;;;;8.15;4.30;;;;;;;27.46;41.15;101629.41;1624378;86;21204;-61
2023/09/25 12:03:27;;;;;;;10.45;4.15;;;;;;;27.51;40.88;101627.26;1629744;87;21789;-62
2023/09/25 12:06:33;;;;;;;9.45;4.08;;;;;;;27.54;40.67;101630.38;1655776;86;21277;-64
2023/09/25 12:09:40;;;;;;;8.20;4.83;;;;;;;27.57;40.45;101622.86;1643289;85;21848;-63
2023/09/25 12:12:47;;;;;;;9.73;4.97;;;;;;;27.62;40.33;101627.13;1616723;86;21852;-60
2023/09/25 12:15:55;;;;;;;10.88;5.90;;;;;;;27.64;40.09;101634.77;1611126;87;21248;-61
2023/09/25 12:19:02;;;;;;;12.95;8.45;;;;;;;27.62;39.81;101624.89;1678516;83;21218;-62
2023/09/25 12:22:09;;;;;;;9.50;4.95;;;;;;;27.61;39.56;101624.58;1690937;83;21719;-61
2023/09/25 12:25:29;;;;;;;8.90;4.40;;;;;;;27.56;39.32;101623.95;1698294;82;21287;-64
2023/09/25 12:28:37;;;;;;;7.60;4.12;;;;;;;27.55;39.17;101634.06;1714155;82;21240;-60
2023/09/25 12:31:44;;;;;;;6.75;3.85;;;;;;;27.52;39.07;101627.00;1722161;82;21721;-61
2023/09/25 12:34:50;;;;;;;7.97;4.22;;;;;;;27.47;38.86;101622.69;1718226;82;21275;-63
2023/09/25 12:37:56;;;;;;;8.73;4.53;;;;;;;27.42;38.67;101620.33;1720754;82;21881;-61
2023/09/25 12:41:03;;;;;;;9.05;3.87;;;;;;;27.36;38.57;101626.99;1709475;82;21245;-61
2023/09/25 12:44:09;;;;;;;12.30;4.33;;;;;;;27.31;38.42;101619.87;1717583;82;21764;-61
2023/09/25 12:47:14;;;;;;;9.20;3.90;;;;;;;27.25;38.22;101623.67;1722108;82;21778;-61
2023/09/25 12:50:22;;;;;;;10.30;3.72;;;;;;;27.20;38.11;101623.05;1644703;87;21907;-59
2023/09/25 12:53:29;;;;;;;11.53;4.40;;;;;;;27.11;37.82;101619.50;1667015;85;21418;-61
2023/09/25 12:56:34;;;;;;;7.30;3.92;;;;;;;27.02;37.71;101620.46;1648188;85;21264;-62
2023/09/25 12:59:41;;;;;;;10.32;4.58;;;;;;;26.96;37.60;101615.00;1671184;85;21236;-61
2023/09/25 13:02:48;;;;;;;10.72;4.08;;;;;;;26.89;37.48;101617.13;1657208;85;21300;-65
2023/09/25 13:05:53;;;;;;;5.85;3.87;;;;;;;26.83;37.42;101609.15;1673452;85;21217;-63
2023/09/25 13:08:58;;;;;;;7.22;4.25;;;;;;;26.78;37.34;101611.03;1673045;85;21281;-61
2023/09/25 13:15:19;;;;;;;12.47;4.28;;;;;;;26.69;37.17;101623.22;1667909;85;21184;-64
2023/09/25 13:18:23;;;;;;;9.83;4.12;;;;;;;26.65;37.17;101622.03;1672996;85;21271;-66
2023/09/25 13:21:29;;;;;;;12.37;4.67;;;;;;;26.63;37.13;101621.39;1646784;85;21792;-63
2023/09/25 13:24:35;;;;;;;10.95;4.53;;;;;;;26.58;37.05;101625.50;1647338;87;21979;-60
2023/09/25 13:27:48;;;;;;;13.22;4.10;;;;;;;26.53;36.95;101624.56;1650063;85;21727;-60
2023/09/25 13:30:50;;;;;;;6.95;3.62;;;;;;;26.48;36.88;101625.31;1731695;82;21259;-63
2023/09/25 13:34:25;;;;;;;7.90;4.30;;;;;;;26.42;36.86;101621.53;1722658;82;21853;-65
2023/09/25 13:37:32;;;;;;;11.70;5.85;;;;;;;26.40;36.90;101621.50;1670993;84;21285;-67
2023/09/25 13:40:38;;;;;;;9.23;5.75;;;;;;;26.35;36.87;101625.60;1737687;82;21189;-60
2023/09/25 13:43:48;;;;;;;10.65;5.03;;;;;;;26.30;36.77;101632.51;1725901;82;21205;-63
2023/09/25 13:46:54;;;;;;;9.55;4.22;;;;;;;26.25;36.73;101632.40;1705642;83;21374;-66
2023/09/25 13:50:02;;;;;;;8.60;3.87;;;;;;;26.21;36.69;101627.82;1706154;83;21899;-67
2023/09/25 13:56:14;;;;;;;10.10;4.03;;;;;;;26.13;36.62;101631.59;1704886;83;21462;-63
2023/09/25 13:59:20;;;;;;;6.53;3.90;;;;;;;26.10;36.59;101630.69;1704983;84;21472;-61
2023/09/25 14:02:26;;;;;;;11.18;3.80;;;;;;;26.06;36.55;101631.72;1716535;82;21220;-66
2023/09/25 14:05:33;;;;;;;11.68;3.92;;;;;;;26.02;36.51;101627.69;1704502;83;22000;-62
2023/09/25 14:08:39;;;;;;;9.13;3.75;;;;;;;25.99;36.49;101631.53;1706739;82;21250;-63
2023/09/25 14:11:49;;;;;;;10.38;3.98;;;;;;;25.95;36.44;101638.72;1698260;84;21791;-62
2023/09/25 14:14:57;;;;;;;11.33;4.30;;;;;;;25.92;36.39;101637.27;1699592;84;21239;-67
2023/09/25 14:18:05;;;;;;;11.73;4.33;;;;;;;25.88;36.43;101633.77;1688199;84;21376;-64
2023/09/25 14:21:19;;;;;;;10.50;4.03;;;;;;;25.83;36.46;101635.08;1676791;85;21727;-68
2023/09/25 14:24:24;;;;;;;9.25;4.20;;;;;;;25.76;36.47;101641.36;1723001;82;21249;-66
2023/09/25 14:27:32;;;;;;;8.38;4.05;;;;;;;25.70;36.45;101640.94;1656990;85;21406;-67
2023/09/25 14:30:39;;;;;;;13.30;4.53;;;;;;;25.62;36.45;101641.30;1713144;82;21281;-68
2023/09/25 14:33:47;;;;;;;10.63;3.87;;;;;;;25.54;36.46;101644.48;1718458;82;21762;-67
2023/09/25 14:36:53;;;;;;;9.70;4.25;;;;;;;25.45;36.46;101641.73;1729213;82;21934;-70
2023/09/25 14:40:02;;;;;;;18.37;4.80;;;;;;;25.37;36.50;101644.33;1729053;83;22235;-62
2023/09/25 14:43:09;;;;;;;13.90;4.42;;;;;;;25.32;36.51;101642.79;1728498;83;21256;-60